Time;durP1;ratioP1;P1;durP2;ratioP2;P2;SDS_P1;SDS_P2;PMS_P1;PMS_P2;Temp;Humidity;BMP_temperature;BMP_pressure;BME280_temperature;BME280_humidity;BME280_pressure;Samples;Min_cycle;Max_cycle;Signal;HPM_P1;HPM_P2
2023/01/12 00:02:18;;;;;;;4.00;1.17;;;;;;;7.97;78.69;100216.22;5054472;28;20260;-81
2023/01/12 00:04:45;;;;;;;4.73;1.13;;;;;;;7.91;78.63;100216.59;5054985;28;20233;-81
2023/01/12 00:07:14;;;;;;;3.43;0.90;;;;;;;7.91;79.54;100213.09;5055103;28;20206;-79
2023/01/12 00:09:41;;;;;;;5.10;1.50;;;;;;;7.83;79.33;100210.91;5054800;28;20264;-81
2023/01/12 00:12:11;;;;;;;6.00;1.37;;;;;;;7.83;79.79;100200.31;5055357;28;20237;-81
2023/01/12 00:14:38;;;;;;;3.30;0.97;;;;;;;7.81;79.74;100209.28;5054749;28;20208;-81
2023/01/12 00:17:06;;;;;;;3.63;1.33;;;;;;;7.80;80.49;100204.91;5055680;28;20660;-81
2023/01/12 00:19:33;;;;;;;8.40;1.70;;;;;;;7.73;80.19;100191.16;5055171;28;20251;-80
2023/01/12 00:22:05;;;;;;;4.40;1.00;;;;;;;7.75;80.31;100199.03;5054847;28;20226;-80
2023/01/12 00:24:35;;;;;;;4.70;1.00;;;;;;;7.78;80.12;100201.50;5054887;28;20279;-81
2023/01/12 00:27:04;;;;;;;4.03;1.00;;;;;;;7.77;80.97;100213.91;5054708;28;20590;-81
2023/01/12 00:29:31;;;;;;;6.60;1.10;;;;;;;7.76;80.55;100211.34;5054534;28;20296;-81
2023/01/12 00:31:59;;;;;;;2.30;1.10;;;;;;;7.73;81.60;100216.81;5054302;28;20229;-80
2023/01/12 00:34:26;;;;;;;3.87;1.10;;;;;;;7.75;80.93;100204.34;5054650;28;20201;-80
2023/01/12 00:36:53;;;;;;;3.43;1.00;;;;;;;7.69;81.40;100205.56;5054550;28;20660;-82
2023/01/12 00:39:20;;;;;;;4.13;0.83;;;;;;;7.70;81.45;100199.31;5053596;28;20216;-81
2023/01/12 00:47:19;;;;;;;5.33;1.50;;;;;;;7.84;82.81;100203.81;5053495;28;20185;-81
2023/01/12 00:49:46;;;;;;;5.57;0.80;;;;;;;7.80;83.03;100203.13;5054705;28;20208;-81
2023/01/12 00:52:15;;;;;;;4.53;1.30;;;;;;;7.78;83.23;100202.34;5053874;28;20229;-81
2023/01/12 00:54:41;;;;;;;2.87;1.00;;;;;;;7.78;83.69;100191.75;5054081;28;20213;-80
2023/01/12 00:57:12;;;;;;;5.90;1.60;;;;;;;7.72;84.13;100215.09;5053798;28;20210;-81
2023/01/12 00:59:38;;;;;;;5.03;1.40;;;;;;;7.69;84.23;100215.31;5053447;28;20193;-82
2023/01/12 01:02:05;;;;;;;4.00;0.90;;;;;;;7.65;84.45;100226.09;5053125;28;20221;-81
2023/01/12 01:04:33;;;;;;;5.40;1.33;;;;;;;7.66;84.44;100216.34;5048402;28;20223;-80
2023/01/12 01:07:00;;;;;;;5.43;1.40;;;;;;;7.70;85.32;100214.38;5033930;28;20272;-80
2023/01/12 01:09:26;;;;;;;4.30;1.20;;;;;;;7.70;84.73;100217.88;5052743;28;20221;-81
2023/01/12 01:11:53;;;;;;;6.07;1.13;;;;;;;7.69;85.70;100215.31;5051659;28;20217;-81
2023/01/12 01:14:20;;;;;;;5.47;1.17;;;;;;;7.67;85.53;100212.75;5052651;28;20206;-81
2023/01/12 01:16:47;;;;;;;3.33;0.83;;;;;;;7.66;86.17;100200.44;5038534;28;20210;-80
2023/01/12 01:19:13;;;;;;;4.70;0.97;;;;;;;7.68;85.49;100198.56;5049765;28;20198;-79
2023/01/12 01:21:40;;;;;;;4.80;0.80;;;;;;;7.62;85.26;100210.34;5047472;28;20720;-81
2023/01/12 01:24:11;;;;;;;3.67;1.30;;;;;;;7.65;85.56;100210.19;5048802;28;20690;-82
2023/01/12 01:26:37;;;;;;;6.00;1.20;;;;;;;7.68;85.20;100193.25;5052271;28;20852;-80
2023/01/12 01:29:03;;;;;;;3.43;1.00;;;;;;;7.71;85.12;100197.50;5052896;28;20214;-81
2023/01/12 01:31:31;;;;;;;4.60;1.07;;;;;;;7.74;84.65;100194.66;5048446;28;20222;-81
2023/01/12 01:33:58;;;;;;;4.97;0.90;;;;;;;7.78;84.31;100196.19;5048341;28;20570;-80
2023/01/12 01:36:24;;;;;;;2.67;0.90;;;;;;;7.80;84.51;100196.97;5052683;28;20209;-81
2023/01/12 01:38:51;;;;;;;3.17;1.03;;;;;;;7.87;84.06;100193.03;5052473;28;20580;-81
2023/01/12 01:41:21;;;;;;;2.47;0.90;;;;;;;7.90;83.63;100203.41;5034226;28;20225;-81
2023/01/12 01:43:56;;;;;;;2.37;0.93;;;;;;;7.91;83.92;100199.81;5032934;28;20225;-81
2023/01/12 01:46:40;;;;;;;1.47;0.70;;;;;;;7.94;83.53;100199.66;5032912;28;20197;-82
2023/01/12 01:49:23;;;;;;;0.87;0.37;;;;;;;7.98;82.82;100198.53;5032831;28;20183;-81
2023/01/12 01:51:51;;;;;;;2.40;0.80;;;;;;;7.97;83.23;100200.31;5032716;28;20226;-82
2023/01/12 01:54:17;;;;;;;7.53;1.37;;;;;;;8.01;83.20;100193.03;5042770;28;20197;-82
2023/01/12 01:56:45;;;;;;;2.33;0.70;;;;;;;8.00;84.03;100192.19;5052702;28;20212;-81
2023/01/12 01:59:16;;;;;;;4.60;1.23;;;;;;;8.06;84.11;100185.66;5052442;28;20687;-81
2023/01/12 02:01:44;;;;;;;2.03;0.60;;;;;;;8.06;84.12;100198.09;5052352;28;20233;-81
2023/01/12 02:04:11;;;;;;;3.17;0.80;;;;;;;8.01;84.83;100196.56;5052003;28;20232;-81
2023/01/12 02:06:38;;;;;;;4.13;1.33;;;;;;;8.04;85.45;100184.91;5052526;28;20683;-80
2023/01/12 02:09:10;;;;;;;2.47;0.70;;;;;;;8.02;84.86;100195.59;5052207;28;20205;-80
2023/01/12 02:17:19;;;;;;;0.90;0.60;;;;;;;7.98;86.78;100182.63;5056273;28;20189;-80
2023/01/12 02:20:08;;;;;;;3.13;0.97;;;;;;;7.92;86.73;100175.00;5056044;28;20190;-81
2023/01/12 02:23:07;;;;;;;2.23;0.60;;;;;;;7.92;88.00;100167.06;5055373;28;20216;-81
2023/01/12 02:26:05;;;;;;;1.60;1.03;;;;;;;7.87;88.01;100166.50;5044998;28;20229;-79
2023/01/12 02:28:54;;;;;;;2.67;0.80;;;;;;;7.83;88.19;100155.22;5054380;28;20196;-80
2023/01/12 02:31:40;;;;;;;2.30;0.50;;;;;;;7.90;88.39;100153.03;5053737;28;20232;-81
2023/01/12 02:34:18;;;;;;;4.40;0.93;;;;;;;7.88;87.95;100153.13;5054209;28;20197;-80
2023/01/12 02:36:52;;;;;;;3.70;1.17;;;;;;;7.87;88.71;100150.59;5054376;28;20197;-81
2023/01/12 02:39:24;;;;;;;2.13;1.20;;;;;;;7.89;88.53;100151.34;5054466;28;20197;-80
2023/01/12 02:44:51;;;;;;;3.23;0.60;;;;;;;7.86;87.90;100154.19;5055312;28;20310;-80
2023/01/12 02:47:28;;;;;;;1.13;0.60;;;;;;;7.87;87.39;100145.31;5055356;28;20185;-80
2023/01/12 02:49:59;;;;;;;3.60;0.90;;;;;;;7.92;87.61;100151.16;5054546;28;20698;-80
2023/01/12 02:52:30;;;;;;;2.70;0.90;;;;;;;7.94;87.71;100151.91;5054506;28;20244;-80
2023/01/12 02:54:58;;;;;;;2.07;0.53;;;;;;;7.99;86.48;100129.50;5054349;28;20190;-80
2023/01/12 02:57:26;;;;;;;2.13;0.53;;;;;;;7.99;86.41;100140.09;5053228;28;20210;-80
2023/01/12 02:59:55;;;;;;;2.87;0.57;;;;;;;8.00;87.05;100130.34;5054343;28;20214;-80
2023/01/12 03:02:26;;;;;;;1.77;0.50;;;;;;;8.02;86.48;100112.53;5053677;28;20234;-81
2023/01/12 03:04:53;;;;;;;3.20;0.70;;;;;;;8.06;85.74;100118.53;5053906;28;20206;-81
2023/01/12 03:07:43;;;;;;;2.50;0.60;;;;;;;8.04;85.71;100113.31;5053839;28;20245;-81
2023/01/12 03:10:36;;;;;;;1.27;0.53;;;;;;;8.10;85.69;100109.41;5053271;28;20212;-80
2023/01/12 03:13:07;;;;;;;1.37;0.53;;;;;;;8.11;85.41;100113.75;5052952;28;20197;-80
2023/01/12 03:15:37;;;;;;;2.27;0.60;;;;;;;8.10;85.71;100106.75;5049859;28;20210;-80
2023/01/12 03:18:13;;;;;;;1.60;0.43;;;;;;;8.09;85.80;100105.91;5032966;28;20547;-80
2023/01/12 03:20:46;;;;;;;1.70;0.47;;;;;;;8.08;85.48;100106.84;5033327;28;20230;-80
2023/01/12 03:23:19;;;;;;;2.10;0.60;;;;;;;8.10;85.82;100099.66;4994665;28;1104853;-80
2023/01/12 03:25:48;;;;;;;2.83;0.40;;;;;;;8.11;85.66;100096.06;5033569;28;20219;-80
2023/01/12 03:28:18;;;;;;;2.70;0.60;;;;;;;8.10;85.97;100099.66;5033670;28;20210;-81
2023/01/12 03:30:52;;;;;;;0.90;0.37;;;;;;;8.07;85.88;100091.88;5034053;28;20238;-81
2023/01/12 03:33:20;;;;;;;1.47;0.30;;;;;;;8.04;86.38;100086.78;5033605;28;20593;-80
2023/01/12 03:35:52;;;;;;;1.83;0.60;;;;;;;8.06;86.69;100087.50;5033801;28;20205;-80
2023/01/12 03:38:25;;;;;;;1.47;0.50;;;;;;;8.01;86.18;100085.19;5034092;28;20187;-80
2023/01/12 03:41:00;;;;;;;2.03;0.50;;;;;;;8.02;87.17;100080.72;5043396;28;20759;-81
2023/01/12 03:43:33;;;;;;;1.47;0.37;;;;;;;8.03;86.74;100074.47;5053858;28;20193;-80
2023/01/12 03:46:06;;;;;;;1.53;0.40;;;;;;;7.98;87.63;100081.84;5053734;28;20214;-80
2023/01/12 03:48:38;;;;;;;0.97;0.40;;;;;;;7.98;88.42;100074.75;5053458;28;20198;-81
2023/01/12 03:51:20;;;;;;;0.80;0.43;;;;;;;8.02;87.83;100072.78;5051850;28;20260;-80
2023/01/12 03:53:50;;;;;;;1.33;0.40;;;;;;;8.00;87.59;100078.16;5034208;28;20183;-81
2023/01/12 03:56:19;;;;;;;0.90;0.40;;;;;;;8.02;87.93;100080.72;5033728;28;20562;-81
2023/01/12 03:58:46;;;;;;;1.83;0.50;;;;;;;8.02;88.09;100073.63;5038186;28;20201;-81
2023/01/12 04:01:13;;;;;;;2.33;0.60;;;;;;;8.01;88.19;100073.72;5053455;28;20234;-80
2023/01/12 04:03:41;;;;;;;0.70;0.43;;;;;;;7.99;88.75;100084.41;5053490;28;20212;-81
2023/01/12 04:06:08;;;;;;;1.63;0.60;;;;;;;8.00;88.80;100072.00;5053800;28;20222;-80
2023/01/12 04:08:35;;;;;;;1.27;0.60;;;;;;;8.03;89.21;100066.53;5054378;28;20562;-80
2023/01/12 04:12:08;;;;;;;2.40;0.80;;;;;;;8.00;89.48;100067.56;5053786;28;20233;-81
2023/01/12 04:13:50;;;;;;;1.80;0.53;;;;;;;8.01;90.12;100071.06;5053474;28;20292;-80
2023/01/12 04:16:16;;;;;;;1.00;0.50;;;;;;;8.00;89.79;100064.06;5053609;28;20201;-81
2023/01/12 04:18:44;;;;;;;2.43;0.67;;;;;;;8.01;89.44;100063.09;5053187;28;20205;-80
2023/01/12 04:22:41;;;;;;;2.40;0.60;;;;;;;7.97;89.92;100053.63;5053455;28;20240;-81
2023/01/12 04:23:56;;;;;;;1.37;0.60;;;;;;;7.99;90.86;100059.69;5053367;28;20220;-82
2023/01/12 04:26:23;;;;;;;1.73;0.60;;;;;;;7.96;91.24;100055.44;5053650;28;20225;-81
2023/01/12 04:28:50;;;;;;;2.93;0.50;;;;;;;7.93;91.15;100057.41;5053465;28;20212;-82
2023/01/12 04:31:16;;;;;;;2.43;0.60;;;;;;;7.93;91.73;100054.75;5053152;28;20236;-81
2023/01/12 04:33:44;;;;;;;1.43;0.50;;;;;;;7.90;91.42;100047.84;5053547;28;20209;-80
2023/01/12 04:36:11;;;;;;;2.33;0.87;;;;;;;7.91;91.64;100040.75;5053221;28;20205;-81
2023/01/12 04:38:38;;;;;;;2.13;0.60;;;;;;;7.88;92.33;100046.25;5054164;28;20201;-81
2023/01/12 04:41:05;;;;;;;2.63;1.27;;;;;;;7.85;92.30;100043.78;5053833;28;20726;-82
2023/01/12 04:43:32;;;;;;;0.93;0.60;;;;;;;7.85;93.03;100033.19;5053850;28;20847;-81
2023/01/12 04:45:58;;;;;;;1.47;0.60;;;;;;;7.87;92.88;100033.94;5053254;28;20233;-80
2023/01/12 04:48:25;;;;;;;1.67;0.83;;;;;;;7.91;93.04;100033.63;5053111;28;20205;-81
2023/01/12 04:50:53;;;;;;;5.33;0.80;;;;;;;7.89;92.92;100032.03;5053464;28;20236;-81
2023/01/12 04:53:20;;;;;;;2.90;0.63;;;;;;;7.86;93.70;100021.63;5053333;28;20672;-81
2023/01/12 04:55:48;;;;;;;1.30;0.50;;;;;;;7.90;93.67;100021.31;5053739;28;20205;-80
2023/01/12 04:58:14;;;;;;;2.43;0.50;;;;;;;7.88;94.06;100023.22;5052790;28;20221;-80
2023/01/12 05:00:41;;;;;;;2.43;0.57;;;;;;;7.90;94.18;100017.81;5053792;28;20854;-80
2023/01/12 05:03:11;;;;;;;2.90;0.90;;;;;;;7.91;93.66;100027.47;5053389;28;20216;-80
2023/01/12 05:05:37;;;;;;;1.67;0.70;;;;;;;7.91;94.07;100014.22;5053721;28;20225;-80
2023/01/12 05:10:51;;;;;;;2.47;0.80;;;;;;;7.94;94.34;100004.28;5052064;28;20220;-81
2023/01/12 05:13:18;;;;;;;2.47;0.60;;;;;;;7.95;93.98;100008.66;5052680;28;20680;-80
2023/01/12 05:15:45;;;;;;;1.13;0.50;;;;;;;7.92;94.20;100007.97;5051502;28;20212;-80
2023/01/12 05:18:11;;;;;;;3.00;0.73;;;;;;;7.90;94.45;99996.63;5051699;28;20614;-81
2023/01/12 05:20:38;;;;;;;0.83;0.40;;;;;;;7.94;94.70;100003.44;5051870;28;20244;-80
2023/01/12 05:23:05;;;;;;;2.43;0.40;;;;;;;7.92;94.93;100000.88;5051553;28;20224;-80
2023/01/12 05:25:32;;;;;;;1.07;0.40;;;;;;;7.92;95.17;99986.78;5051523;28;20722;-80
2023/01/12 05:27:59;;;;;;;1.47;1.00;;;;;;;7.97;94.12;99992.63;5051712;28;20249;-80
2023/01/12 05:30:28;;;;;;;1.20;0.60;;;;;;;7.97;94.15;99972.28;5051351;28;20203;-80
2023/01/12 05:32:55;;;;;;;1.93;0.43;;;;;;;7.96;94.64;99972.38;5051414;28;20217;-80
2023/01/12 05:35:22;;;;;;;1.60;0.43;;;;;;;7.93;94.15;99962.81;5051766;28;20213;-80
2023/01/12 05:37:48;;;;;;;2.57;0.60;;;;;;;7.97;94.18;99963.47;5052603;28;20694;-80
2023/01/12 05:40:16;;;;;;;1.10;0.40;;;;;;;7.94;94.37;99966.31;5052864;28;20668;-81
2023/01/12 05:45:27;;;;;;;2.00;0.40;;;;;;;7.95;93.55;99958.25;5051934;28;20591;-81
2023/01/12 05:47:57;;;;;;;1.23;0.37;;;;;;;7.93;94.75;99946.91;5052119;28;20217;-81
2023/01/12 05:50:23;;;;;;;1.77;0.33;;;;;;;7.94;94.21;99948.59;5052212;28;20209;-79
2023/01/12 05:52:51;;;;;;;2.40;0.60;;;;;;;7.98;94.50;99941.31;5052688;28;20212;-80
2023/01/12 05:55:19;;;;;;;1.00;0.37;;;;;;;7.97;94.29;99944.91;5052088;28;20205;-81
2023/01/12 05:57:45;;;;;;;1.33;0.50;;;;;;;7.99;94.11;99940.38;5052367;28;20213;-80
2023/01/12 06:00:14;;;;;;;2.13;0.57;;;;;;;8.01;93.75;99931.38;5051505;28;20209;-80
2023/01/12 06:02:40;;;;;;;1.97;0.40;;;;;;;8.00;94.65;99932.31;5052251;28;20206;-80
2023/01/12 06:05:08;;;;;;;1.60;0.47;;;;;;;8.02;93.73;99940.19;5051904;28;20236;-80
2023/01/12 06:07:35;;;;;;;0.67;0.30;;;;;;;8.02;94.07;99937.53;5051981;28;20288;-81
2023/01/12 06:10:01;;;;;;;0.63;0.40;;;;;;;8.04;94.78;99930.31;5051714;28;20208;-80
2023/01/12 06:15:13;;;;;;;1.17;0.33;;;;;;;8.04;93.84;99932.97;5052953;28;20209;-81
2023/01/12 06:17:40;;;;;;;1.27;0.40;;;;;;;8.01;94.57;99915.47;5051928;28;20205;-81
2023/01/12 06:20:07;;;;;;;1.23;0.30;;;;;;;8.02;94.76;99921.63;5052069;28;20210;-81
2023/01/12 06:22:34;;;;;;;0.83;0.30;;;;;;;8.02;94.90;99903.06;5052180;28;20590;-81
2023/01/12 06:25:00;;;;;;;1.10;0.47;;;;;;;8.02;94.82;99903.91;5051829;28;20857;-81
2023/01/12 06:27:34;;;;;;;1.03;0.30;;;;;;;8.05;94.95;99894.91;5052205;28;20684;-81
2023/01/12 06:30:00;;;;;;;0.60;0.30;;;;;;;8.05;94.59;99899.34;5052213;28;20823;-80
2023/01/12 06:32:28;;;;;;;0.40;0.40;;;;;;;8.09;94.56;99885.78;5051442;28;20229;-81
2023/01/12 06:34:56;;;;;;;1.20;0.40;;;;;;;8.08;94.24;99876.13;5051146;28;20201;-81
2023/01/12 06:37:22;;;;;;;0.80;0.40;;;;;;;8.08;93.69;99889.38;5051210;28;20256;-81
2023/01/12 06:39:48;;;;;;;1.03;0.50;;;;;;;8.06;93.81;99864.75;5051231;28;20287;-80
2023/01/12 06:42:30;;;;;;;0.50;0.30;;;;;;;8.08;93.42;99884.06;5051111;28;20233;-80
2023/01/12 06:44:59;;;;;;;1.50;0.40;;;;;;;8.03;93.95;99880.88;5050883;28;20190;-81
2023/01/12 06:47:29;;;;;;;1.60;0.70;;;;;;;8.06;93.45;99877.19;5051420;28;20302;-80
2023/01/12 06:49:56;;;;;;;2.10;0.40;;;;;;;8.07;92.98;99882.38;5051003;28;20270;-81
2023/01/12 06:52:24;;;;;;;0.20;0.20;;;;;;;8.08;92.94;99868.16;5051060;28;20730;-81
2023/01/12 06:54:51;;;;;;;0.53;0.20;;;;;;;8.09;93.14;99859.25;5051396;28;20289;-81
2023/01/12 06:57:19;;;;;;;0.20;0.20;;;;;;;8.09;92.73;99867.22;5051172;28;20206;-80
2023/01/12 06:59:45;;;;;;;1.50;0.40;;;;;;;8.10;93.12;99868.06;5053339;28;20214;-80
2023/01/12 07:02:15;;;;;;;0.47;0.37;;;;;;;8.15;91.53;99858.00;5055237;28;20229;-80
2023/01/12 07:04:42;;;;;;;1.20;0.37;;;;;;;8.15;92.66;99845.59;5056240;28;20215;-82
2023/01/12 07:07:10;;;;;;;0.47;0.20;;;;;;;8.18;92.48;99848.06;5054932;28;20233;-81
2023/01/12 07:09:36;;;;;;;0.93;0.43;;;;;;;8.15;91.94;99826.19;5055454;28;20541;-80
2023/01/12 07:12:04;;;;;;;0.27;0.20;;;;;;;8.11;91.09;99814.91;5055832;28;20225;-81
2023/01/12 07:14:30;;;;;;;1.80;0.40;;;;;;;8.12;91.48;99803.38;5056157;28;20205;-81
2023/01/12 07:16:57;;;;;;;1.27;0.33;;;;;;;8.18;91.43;99813.56;5055844;28;20285;-81
2023/01/12 07:19:25;;;;;;;1.70;0.30;;;;;;;8.20;91.50;99813.47;5055982;28;20213;-81
2023/01/12 07:21:51;;;;;;;0.40;0.20;;;;;;;8.17;91.34;99808.38;5056385;28;20225;-82
2023/01/12 07:24:18;;;;;;;0.40;0.30;;;;;;;8.23;91.59;99814.13;5056360;28;20224;-81
2023/01/12 07:26:47;;;;;;;4.73;1.53;;;;;;;8.18;91.14;99797.66;5056297;28;20712;-81
2023/01/12 07:29:14;;;;;;;0.83;0.30;;;;;;;8.17;91.43;99808.38;5056028;28;20197;-82
2023/01/12 07:31:40;;;;;;;2.53;0.60;;;;;;;8.15;91.33;99800.50;5056055;28;20732;-81
2023/01/12 07:34:07;;;;;;;0.77;0.40;;;;;;;8.17;91.20;99793.31;5055537;28;20217;-80
2023/01/12 07:36:34;;;;;;;0.57;0.43;;;;;;;8.19;90.80;99790.56;5056391;28;20265;-81
2023/01/12 07:39:01;;;;;;;0.83;0.57;;;;;;;8.22;90.96;99775.28;5055603;28;20587;-81
2023/01/12 07:44:11;;;;;;;1.30;0.80;;;;;;;8.21;90.73;99773.59;5055129;28;20197;-81
2023/01/12 07:46:38;;;;;;;2.27;0.63;;;;;;;8.17;91.03;99768.59;5055386;28;20715;-81
2023/01/12 07:49:04;;;;;;;1.13;0.30;;;;;;;8.16;90.84;99762.44;5054936;28;20205;-81
2023/01/12 07:51:31;;;;;;;1.30;0.20;;;;;;;8.27;90.84;99762.53;5054853;28;20225;-81
2023/01/12 07:53:58;;;;;;;0.60;0.30;;;;;;;8.32;90.88;99754.31;5054630;28;20289;-81
2023/01/12 07:56:25;;;;;;;0.77;0.40;;;;;;;8.28;90.48;99753.63;5054329;28;20292;-81
2023/01/12 07:58:51;;;;;;;2.33;0.37;;;;;;;8.27;90.86;99743.97;5054567;28;20209;-80
2023/01/12 08:01:18;;;;;;;0.73;0.30;;;;;;;8.23;91.70;99745.16;5055605;28;20229;-81
2023/01/12 08:03:44;;;;;;;1.33;0.40;;;;;;;8.27;91.43;99738.66;5054793;28;20208;-81
2023/01/12 08:06:11;;;;;;;0.70;0.30;;;;;;;8.27;91.30;99745.78;5054359;28;20229;-82
2023/01/12 08:08:37;;;;;;;0.63;0.27;;;;;;;8.27;91.57;99754.59;5054372;28;20209;-81
2023/01/12 08:11:07;;;;;;;0.33;0.23;;;;;;;8.20;91.79;99744.50;5052957;28;20222;-82
2023/01/12 08:13:35;;;;;;;1.17;0.40;;;;;;;8.20;92.25;99732.09;5054342;28;20201;-81
2023/01/12 08:16:07;;;;;;;1.30;0.40;;;;;;;8.17;91.87;99736.75;5054385;28;20229;-81
2023/01/12 08:18:39;;;;;;;1.13;0.50;;;;;;;8.20;92.16;99741.84;5054107;28;20590;-81
2023/01/12 08:21:09;;;;;;;1.07;0.40;;;;;;;8.17;92.43;99744.72;5053907;28;20237;-81
2023/01/12 08:23:40;;;;;;;0.77;0.40;;;;;;;8.15;92.47;99752.78;5054248;28;20213;-81
2023/01/12 08:26:12;;;;;;;0.83;0.40;;;;;;;8.17;92.81;99744.72;5053452;28;20225;-80
2023/01/12 08:28:43;;;;;;;0.50;0.30;;;;;;;8.17;92.60;99756.19;5053692;28;20190;-81
2023/01/12 08:31:12;;;;;;;2.13;0.77;;;;;;;8.15;92.82;99746.63;5053777;28;20232;-81
2023/01/12 08:33:40;;;;;;;1.10;0.40;;;;;;;8.13;92.99;99741.41;5053797;28;20206;-82
2023/01/12 08:36:10;;;;;;;0.80;0.37;;;;;;;8.15;92.93;99743.97;5054267;28;20205;-81
2023/01/12 08:38:38;;;;;;;1.10;0.30;;;;;;;8.13;94.04;99732.59;5053763;28;20189;-81
2023/01/12 08:44:02;;;;;;;0.27;0.27;;;;;;;8.13;94.04;99767.94;5053557;28;20539;-82
2023/01/12 08:46:30;;;;;;;0.53;0.20;;;;;;;8.13;94.07;99759.13;5053046;28;20206;-80
2023/01/12 08:48:57;;;;;;;1.23;0.30;;;;;;;8.10;93.17;99738.13;5053437;28;20602;-81
2023/01/12 08:51:23;;;;;;;0.70;0.30;;;;;;;8.12;93.86;99721.16;5052973;28;20233;-81
2023/01/12 08:53:50;;;;;;;1.17;0.27;;;;;;;8.10;93.62;99735.47;5052559;28;20213;-81
2023/01/12 08:56:16;;;;;;;2.67;0.50;;;;;;;8.08;93.84;99740.88;5053182;28;20232;-81
2023/01/12 08:58:43;;;;;;;1.60;0.33;;;;;;;8.07;94.08;99730.34;5053091;28;20209;-81
2023/01/12 09:01:12;;;;;;;0.70;0.30;;;;;;;8.07;94.21;99752.44;5052970;28;20690;-79
2023/01/12 09:03:40;;;;;;;2.40;0.47;;;;;;;8.05;94.36;99750.84;5052540;28;20201;-81
2023/01/12 09:06:11;;;;;;;0.53;0.30;;;;;;;8.05;93.89;99735.78;5052653;28;20233;-81
2023/01/12 09:08:38;;;;;;;1.57;0.33;;;;;;;8.13;93.79;99730.81;5053099;28;20269;-80
2023/01/12 09:11:05;;;;;;;0.37;0.20;;;;;;;8.20;92.59;99744.50;5052708;28;20594;-81
2023/01/12 09:13:33;;;;;;;0.23;0.10;;;;;;;8.14;92.16;99732.50;5053033;28;20577;-80
2023/01/12 09:16:02;;;;;;;0.33;0.20;;;;;;;8.18;92.35;99752.56;5053519;28;20593;-80
2023/01/12 09:18:30;;;;;;;0.20;0.10;;;;;;;8.20;92.65;99757.78;5053511;28;20213;-82
2023/01/12 09:21:01;;;;;;;0.23;0.20;;;;;;;8.22;92.54;99743.47;5052977;28;20222;-81
2023/01/12 09:23:28;;;;;;;0.53;0.20;;;;;;;8.23;92.35;99744.31;5052748;28;20255;-82
2023/01/12 09:25:54;;;;;;;0.63;0.20;;;;;;;8.20;91.80;99744.50;5052325;28;20216;-82
2023/01/12 09:28:20;;;;;;;1.23;0.30;;;;;;;8.22;91.73;99761.19;5052910;28;20210;-82
2023/01/12 09:30:47;;;;;;;0.47;0.20;;;;;;;8.28;92.83;99753.63;5052750;28;20232;-82
2023/01/12 09:33:14;;;;;;;1.17;0.23;;;;;;;8.34;92.15;99747.09;5052198;28;20240;-81
2023/01/12 09:35:43;;;;;;;0.20;0.20;;;;;;;8.35;92.02;99744.34;5052519;28;20209;-81
2023/01/12 09:38:09;;;;;;;0.47;0.20;;;;;;;8.37;92.00;99754.84;5052136;28;20584;-81
2023/01/12 09:40:36;;;;;;;0.63;0.10;;;;;;;8.38;91.87;99742.44;5052282;28;20233;-81
2023/01/12 09:48:31;;;;;;;0.57;0.27;;;;;;;8.46;91.21;99751.56;5052397;28;20180;-82
2023/01/12 09:51:07;;;;;;;0.40;0.10;;;;;;;8.51;91.13;99753.91;5052080;28;20221;-82
2023/01/12 09:53:37;;;;;;;0.80;0.30;;;;;;;8.55;90.50;99737.66;5052117;28;20193;-81
2023/01/12 09:56:12;;;;;;;0.13;0.10;;;;;;;8.52;90.37;99753.78;5051869;28;20205;-82
2023/01/12 09:58:59;;;;;;;0.83;0.30;;;;;;;8.51;89.95;99757.41;5051356;28;20185;-82
2023/01/12 10:01:26;;;;;;;0.30;0.23;;;;;;;8.52;90.38;99752.94;5051633;28;20221;-82
2023/01/12 10:03:52;;;;;;;0.57;0.30;;;;;;;8.58;90.25;99761.34;5051962;28;20730;-82
2023/01/12 10:06:21;;;;;;;0.50;0.17;;;;;;;8.65;90.32;99745.81;5051843;28;20237;-81
2023/01/12 10:08:50;;;;;;;0.70;0.30;;;;;;;8.64;90.38;99760.06;5051944;28;20217;-81
2023/01/12 10:11:22;;;;;;;1.17;0.20;;;;;;;8.68;90.38;99761.53;5051642;28;20221;-81
2023/01/12 10:14:25;;;;;;;1.33;0.30;;;;;;;8.66;90.58;99764.28;5051932;28;20197;-82
2023/01/12 10:17:07;;;;;;;0.50;0.20;;;;;;;8.70;91.31;99752.53;5051697;28;20189;-81
2023/01/12 10:19:41;;;;;;;1.83;0.40;;;;;;;8.69;91.13;99757.94;5052298;28;20197;-81
2023/01/12 10:22:35;;;;;;;1.07;0.20;;;;;;;8.72;91.24;99759.53;5051566;28;20225;-81
2023/01/12 10:25:05;;;;;;;0.73;0.10;;;;;;;8.67;91.60;99749.22;5051426;28;20207;-81
2023/01/12 10:27:37;;;;;;;0.30;0.30;;;;;;;8.66;92.40;99752.84;5051724;28;20583;-82
2023/01/12 10:30:12;;;;;;;0.43;0.30;;;;;;;8.72;92.40;99746.25;5051814;28;20186;-80
2023/01/12 10:32:39;;;;;;;0.37;0.20;;;;;;;8.68;93.18;99745.63;5051206;28;20225;-82
2023/01/12 10:35:13;;;;;;;0.27;0.20;;;;;;;8.65;93.47;99738.72;5053660;28;20205;-81
2023/01/12 10:37:46;;;;;;;0.20;0.17;;;;;;;8.66;93.82;99751.03;5055040;28;20212;-81
2023/01/12 10:40:24;;;;;;;0.23;0.13;;;;;;;8.65;93.90;99748.47;5055150;28;20206;-81
2023/01/12 10:43:22;;;;;;;0.50;0.10;;;;;;;8.66;94.73;99732.44;5055176;28;20197;-81
2023/01/12 10:46:09;;;;;;;0.33;0.20;;;;;;;8.70;94.95;99746.34;5055069;28;20216;-82
2023/01/12 10:48:37;;;;;;;1.20;0.30;;;;;;;8.73;94.79;99726.72;5055766;28;20200;-81
2023/01/12 10:51:07;;;;;;;0.10;0.10;;;;;;;8.75;94.48;99725.66;5055428;28;20729;-81
2023/01/12 10:53:43;;;;;;;0.10;0.10;;;;;;;8.81;94.90;99741.13;5055036;28;20794;-82
2023/01/12 10:56:14;;;;;;;0.20;0.20;;;;;;;8.81;95.24;99732.31;5055397;28;20205;-82
2023/01/12 10:58:42;;;;;;;0.27;0.10;;;;;;;8.84;94.47;99725.00;5054994;28;20206;-82
2023/01/12 11:01:08;;;;;;;0.93;0.20;;;;;;;8.84;95.00;99734.75;5054783;28;20271;-82
2023/01/12 11:03:38;;;;;;;0.37;0.20;;;;;;;8.84;94.86;99740.06;5055301;28;20295;-82
2023/01/12 11:06:23;;;;;;;1.13;0.20;;;;;;;8.87;94.99;99748.69;5055064;28;20237;-82
2023/01/12 11:08:51;;;;;;;0.50;0.20;;;;;;;8.87;95.20;99731.91;5055224;28;20209;-82
2023/01/12 11:11:24;;;;;;;1.00;0.20;;;;;;;8.93;96.22;99723.50;5054993;28;20221;-82
2023/01/12 11:13:57;;;;;;;0.10;0.10;;;;;;;8.97;95.52;99740.91;5055809;28;20205;-82
2023/01/12 11:16:25;;;;;;;0.33;0.10;;;;;;;8.94;96.22;99749.94;5055303;28;20547;-82
2023/01/12 11:19:03;;;;;;;0.50;0.30;;;;;;;8.96;95.86;99740.03;5055249;28;20210;-82
2023/01/12 11:21:36;;;;;;;0.83;0.50;;;;;;;8.96;95.68;99755.97;5055474;28;20225;-80
2023/01/12 11:24:15;;;;;;;0.43;0.20;;;;;;;8.98;95.84;99743.44;5054647;28;20783;-81
2023/01/12 11:26:46;;;;;;;0.70;0.20;;;;;;;8.97;96.59;99746.19;5054253;28;20225;-80
2023/01/12 11:29:41;;;;;;;0.80;0.30;;;;;;;9.01;96.81;99734.41;5055490;28;20190;-82
2023/01/12 11:32:16;;;;;;;0.10;0.10;;;;;;;9.05;96.87;99736.75;5047239;28;20719;-81
2023/01/12 11:34:55;;;;;;;5.80;2.30;;;;;;;9.04;96.52;99732.41;5054454;28;20186;-80
2023/01/12 11:37:22;;;;;;;2.80;1.30;;;;;;;9.09;96.73;99729.41;5054342;28;20189;-82
2023/01/12 11:39:56;;;;;;;6.53;2.37;;;;;;;9.08;97.03;99741.00;5054930;28;20217;-81
2023/01/12 11:45:17;;;;;;;0.60;0.50;;;;;;;9.12;96.94;99731.00;5053757;28;20235;-82
2023/01/12 11:47:49;;;;;;;0.80;0.70;;;;;;;9.12;97.32;99731.00;5053994;28;20355;-82
2023/01/12 11:50:20;;;;;;;0.90;0.47;;;;;;;9.14;97.84;99737.03;5053662;28;20182;-82
2023/01/12 11:52:47;;;;;;;0.70;0.70;;;;;;;9.16;97.43;99722.69;5054824;28;20193;-82
2023/01/12 11:55:19;;;;;;;0.40;0.30;;;;;;;9.23;97.61;99723.94;5054308;28;20201;-82
2023/01/12 11:57:57;;;;;;;0.37;0.37;;;;;;;9.26;97.15;99736.16;5053608;28;20190;-81
2023/01/12 12:00:33;;;;;;;0.70;0.30;;;;;;;9.24;97.35;99728.31;5053602;28;20251;-81
2023/01/12 12:03:15;;;;;;;0.73;0.30;;;;;;;9.23;97.55;99731.06;5053547;28;20186;-82
2023/01/12 12:05:49;;;;;;;0.13;0.13;;;;;;;9.25;97.81;99718.53;5053555;28;20653;-81
2023/01/12 12:08:29;;;;;;;0.70;0.27;;;;;;;9.32;97.40;99723.25;5053223;28;20220;-81
2023/01/12 12:11:01;;;;;;;0.23;0.20;;;;;;;9.38;97.51;99725.50;5040192;28;20595;-82
2023/01/12 12:13:33;;;;;;;0.60;0.47;;;;;;;9.37;97.34;99726.44;5033976;28;20558;-82
2023/01/12 12:16:13;;;;;;;0.20;0.20;;;;;;;9.40;97.14;99722.72;5053069;28;20190;-80
2023/01/12 12:18:52;;;;;;;0.30;0.20;;;;;;;9.40;97.56;99726.22;5053246;28;20200;-81
2023/01/12 12:21:37;;;;;;;0.30;0.20;;;;;;;9.43;97.71;99725.16;5054382;28;20228;-82
2023/01/12 12:24:16;;;;;;;0.10;0.10;;;;;;;9.48;97.87;99707.06;5054522;28;20580;-80
2023/01/12 12:26:50;;;;;;;0.27;0.27;;;;;;;9.46;98.61;99716.13;5053310;28;20197;-80
2023/01/12 12:29:36;;;;;;;0.67;0.20;;;;;;;9.44;98.76;99710.91;5054304;28;20193;-80
2023/01/12 12:32:16;;;;;;;0.70;0.30;;;;;;;9.44;98.97;99700.28;5054404;28;20707;-81